createdAt,value
2022-11-15T00:01:18.748Z,185.90
2022-11-15T00:03:47.409Z,65.67
2022-11-15T00:06:15.572Z,526.07
2022-11-15T00:08:43.567Z,737.67
2022-11-15T00:11:13.885Z,392.67
2022-11-15T00:13:43.336Z,1300.60
2022-11-15T00:16:12.528Z,1102.77
2022-11-15T00:18:40.656Z,903.67
2022-11-15T00:21:10.046Z,410.97
2022-11-15T00:23:38.286Z,730.07
2022-11-15T00:26:06.721Z,1174.63
2022-11-15T00:28:34.727Z,784.20
2022-11-15T00:31:04.838Z,1020.10
2022-11-15T00:33:33.414Z,156.33
2022-11-15T00:36:03.312Z,393.80
2022-11-15T00:38:34.071Z,1054.73
2022-11-15T00:41:07.923Z,792.73
2022-11-15T00:43:37.744Z,1490.90
2022-11-15T00:46:09.158Z,757.87
2022-11-15T00:48:37.183Z,1303.97
2022-11-15T00:51:05.334Z,1204.73
2022-11-15T00:53:33.639Z,1999.90
2022-11-15T00:56:01.875Z,834.67
2022-11-15T00:58:29.909Z,1044.63
2022-11-15T01:00:58.221Z,1427.60
2022-11-15T01:03:27.735Z,1473.40
2022-11-15T01:05:55.901Z,727.57
2022-11-15T01:08:23.896Z,1618.30
2022-11-15T01:10:51.902Z,1283.83
2022-11-15T01:13:19.925Z,1309.97
2022-11-15T01:15:47.979Z,1817.60
2022-11-15T01:18:15.984Z,1572.97
2022-11-15T01:20:45.629Z,1138.13
2022-11-15T01:23:13.640Z,1010.53
2022-11-15T01:25:41.675Z,987.63
2022-11-15T01:28:09.742Z,900.87
2022-11-15T01:30:38.529Z,295.37
2022-11-15T01:33:06.573Z,210.67
2022-11-15T01:35:34.662Z,878.23
2022-11-15T01:38:04.069Z,149.20
2022-11-15T01:40:32.127Z,927.43
2022-11-15T01:43:00.146Z,446.13
2022-11-15T01:45:28.735Z,238.53
2022-11-15T01:47:57.547Z,507.83
2022-11-15T01:50:29.129Z,291.97
2022-11-15T01:52:57.518Z,292.73
2022-11-15T01:55:29.561Z,282.50
2022-11-15T01:58:01.867Z,209.43
2022-11-15T02:00:31.203Z,67.90
2022-11-15T02:02:59.555Z,48.47
2022-11-15T02:05:28.285Z,186.20
2022-11-15T02:07:56.844Z,198.83
2022-11-15T02:10:27.438Z,915.13
2022-11-15T02:12:56.966Z,66.93
2022-11-15T02:15:29.926Z,946.90
2022-11-15T02:18:12.628Z,598.50
2022-11-15T02:20:57.487Z,205.73
2022-11-15T02:23:58.255Z,292.47
2022-11-15T02:26:58.087Z,39.93
2022-11-15T02:29:38.863Z,761.67
2022-11-15T02:32:15.870Z,468.77
2022-11-15T02:34:56.998Z,482.73
2022-11-15T02:37:33.034Z,664.10
2022-11-15T02:40:09.828Z,791.67
2022-11-15T02:43:00.385Z,513.50
2022-11-15T02:45:33.568Z,947.10
2022-11-15T02:48:04.294Z,207.23
2022-11-15T02:50:34.813Z,912.80
2022-11-15T02:53:02.988Z,600.13
2022-11-15T02:55:33.054Z,302.47
2022-11-15T02:58:18.034Z,833.40
2022-11-15T03:00:53.176Z,1052.00
2022-11-15T03:03:43.766Z,684.67
2022-11-15T03:06:22.235Z,269.63
2022-11-15T03:08:57.836Z,624.00
2022-11-15T03:11:26.436Z,1375.57
2022-11-15T03:13:59.715Z,689.77
2022-11-15T03:16:33.849Z,432.70
2022-11-15T03:19:07.771Z,721.73
2022-11-15T03:21:39.291Z,981.30
2022-11-15T03:24:09.726Z,913.43
2022-11-15T03:26:41.437Z,467.13
2022-11-15T03:29:15.112Z,544.30
2022-11-15T03:31:51.376Z,561.13
2022-11-15T03:34:28.516Z,1326.47
2022-11-15T03:36:56.605Z,657.73
2022-11-15T03:39:26.953Z,752.87
2022-11-15T03:42:03.689Z,588.77
2022-11-15T03:44:41.047Z,624.83
2022-11-15T03:47:13.651Z,262.87
2022-11-15T03:49:46.790Z,559.87
2022-11-15T03:52:15.149Z,643.53
2022-11-15T03:54:51.540Z,494.60
2022-11-15T03:57:19.642Z,760.20
2022-11-15T03:59:47.769Z,460.23
2022-11-15T04:02:16.316Z,527.27
2022-11-15T04:04:45.806Z,168.50
2022-11-15T04:07:13.999Z,938.97
2022-11-15T04:09:56.133Z,429.77
2022-11-15T04:12:31.851Z,1122.13
2022-11-15T04:15:10.382Z,897.20
2022-11-15T04:17:40.428Z,264.43
2022-11-15T04:20:29.889Z,197.87
2022-11-15T04:23:16.458Z,353.30
2022-11-15T04:25:45.654Z,1193.83
2022-11-15T04:28:14.106Z,269.23
2022-11-15T04:30:42.182Z,824.27
2022-11-15T04:33:10.321Z,1084.67
2022-11-15T04:35:39.925Z,1376.23
2022-11-15T04:38:09.451Z,705.90
2022-11-15T04:40:38.088Z,387.47
2022-11-15T04:43:06.699Z,732.80
2022-11-15T04:45:34.726Z,967.70
2022-11-15T04:48:02.785Z,1999.90
2022-11-15T04:50:30.802Z,1994.23
2022-11-15T04:53:00.194Z,1387.27
2022-11-15T04:55:28.211Z,1378.07
2022-11-15T04:58:03.252Z,877.17
2022-11-15T05:00:31.823Z,1725.83
2022-11-15T05:03:17.613Z,1033.47
2022-11-15T05:05:45.628Z,1167.13
2022-11-15T05:08:15.043Z,1999.90
2022-11-15T05:10:43.052Z,1999.90
2022-11-15T05:13:11.118Z,929.73
2022-11-15T05:15:39.138Z,1465.30
2022-11-15T05:18:07.215Z,1021.70
2022-11-15T05:20:35.212Z,1706.50
2022-11-15T05:23:03.277Z,1228.53
2022-11-15T05:25:32.715Z,996.73
2022-11-15T05:28:00.735Z,1372.07
2022-11-15T05:30:28.762Z,1338.83
2022-11-15T05:32:56.839Z,1937.93
2022-11-15T05:35:31.555Z,1774.63
2022-11-15T05:37:59.884Z,1999.90
2022-11-15T05:40:28.541Z,1099.33
2022-11-15T05:42:58.795Z,1610.63
2022-11-15T05:45:27.286Z,1276.53
2022-11-15T05:47:57.634Z,993.23
2022-11-15T05:50:25.807Z,1318.83
2022-11-15T05:52:54.187Z,1272.23
2022-11-15T05:55:22.529Z,1351.20
2022-11-15T05:57:50.676Z,848.17
2022-11-15T06:00:20.827Z,1321.00
2022-11-15T06:02:48.825Z,914.73
2022-11-15T06:05:17.029Z,674.63
2022-11-15T06:07:45.247Z,363.93
2022-11-15T06:10:13.699Z,217.17
2022-11-15T06:12:41.731Z,531.13
2022-11-15T06:15:10.806Z,212.73
2022-11-15T06:17:40.207Z,549.00
2022-11-15T06:20:09.052Z,561.00
2022-11-15T06:22:37.062Z,806.10
2022-11-15T06:25:05.968Z,542.17
2022-11-15T06:27:34.115Z,83.07
2022-11-15T06:30:02.244Z,255.20
2022-11-15T06:32:31.571Z,453.70
2022-11-15T06:35:00.978Z,325.00
2022-11-15T06:37:28.980Z,103.77
2022-11-15T06:39:57.011Z,332.83
2022-11-15T06:42:25.050Z,133.07
2022-11-15T06:44:53.060Z,520.93
2022-11-15T06:47:21.082Z,373.23
2022-11-15T06:49:49.132Z,87.60
2022-11-15T06:52:19.468Z,571.60
2022-11-15T06:54:47.660Z,39.43
2022-11-15T06:57:15.707Z,270.60
2022-11-15T06:59:44.006Z,341.90
2022-11-15T07:02:15.529Z,37.63
2022-11-15T07:04:43.629Z,223.70
2022-11-15T07:07:12.138Z,26.63
2022-11-15T07:09:41.549Z,152.33
2022-11-15T07:12:09.594Z,278.70
2022-11-15T07:14:37.624Z,235.17
2022-11-15T07:17:06.780Z,416.30
2022-11-15T07:19:34.819Z,17.27
2022-11-15T07:22:02.883Z,634.90
2022-11-15T07:24:31.115Z,130.90
2022-11-15T07:27:00.600Z,263.13
2022-11-15T07:29:29.023Z,933.07
2022-11-15T07:31:57.367Z,29.57
2022-11-15T07:34:25.811Z,104.40
2022-11-15T07:36:53.904Z,914.50
2022-11-15T07:39:21.906Z,57.30
2022-11-15T07:41:50.534Z,482.00
2022-11-15T07:44:19.895Z,238.00
2022-11-15T07:46:47.994Z,258.67
2022-11-15T07:49:15.983Z,1033.60
2022-11-15T07:51:44.022Z,863.27
2022-11-15T07:54:12.006Z,420.00
2022-11-15T07:56:40.155Z,184.70
2022-11-15T07:59:08.153Z,1056.33
2022-11-15T08:01:37.604Z,884.70
2022-11-15T08:04:05.867Z,638.00
2022-11-15T08:06:33.912Z,406.50
2022-11-15T08:09:02.159Z,191.10
2022-11-15T08:11:30.273Z,591.73
2022-11-15T08:13:58.467Z,802.50
2022-11-15T08:16:26.493Z,891.63
2022-11-15T08:18:55.861Z,1079.67
2022-11-15T08:21:25.149Z,344.47
2022-11-15T08:23:53.169Z,829.80
2022-11-15T08:26:21.324Z,1329.40
2022-11-15T08:28:49.301Z,216.43
2022-11-15T08:31:19.615Z,1999.90
2022-11-15T08:33:47.909Z,1277.00
2022-11-15T08:36:19.077Z,1677.70
2022-11-15T08:38:47.150Z,939.07
2022-11-15T08:41:18.875Z,1504.03
2022-11-15T08:43:46.938Z,826.27
2022-11-15T08:46:15.872Z,728.10
2022-11-15T08:48:43.878Z,1280.10
2022-11-15T08:51:11.934Z,1378.83
2022-11-15T08:53:41.454Z,1134.90
2022-11-15T08:56:10.128Z,1198.63
2022-11-15T08:58:38.731Z,1477.80
2022-11-15T09:01:07.467Z,1207.80
2022-11-15T09:03:35.672Z,746.47
2022-11-15T09:06:03.845Z,1999.90
2022-11-15T09:08:47.053Z,1859.73
2022-11-15T09:11:21.095Z,1085.80
2022-11-15T09:13:49.120Z,1859.10
2022-11-15T09:16:17.296Z,1675.77
2022-11-15T09:18:45.542Z,1735.13
2022-11-15T09:21:13.678Z,733.13
2022-11-15T09:23:41.847Z,1982.47
2022-11-15T09:26:10.372Z,1269.00
2022-11-15T09:28:42.745Z,1999.90
2022-11-15T09:31:10.897Z,1999.90
2022-11-15T09:33:39.205Z,1999.90
2022-11-15T09:36:09.511Z,1968.93
2022-11-15T09:38:37.892Z,1999.90
2022-11-15T09:41:41.040Z,1805.20
2022-11-15T09:44:30.009Z,1999.90
2022-11-15T09:47:05.201Z,1825.50
2022-11-15T09:49:33.941Z,1999.90
2022-11-15T09:52:02.712Z,1999.90
2022-11-15T09:57:25.274Z,1962.57
2022-11-15T10:00:23.942Z,1959.23
2022-11-15T10:03:11.492Z,1886.40
2022-11-15T10:05:42.878Z,1292.30
2022-11-15T10:08:33.991Z,1006.37
2022-11-15T10:11:35.549Z,1999.90
2022-11-15T10:13:57.400Z,1970.33
2022-11-15T10:17:01.922Z,1726.10
2022-11-15T10:19:36.335Z,1999.90
2022-11-15T10:22:20.999Z,1999.90
2022-11-15T10:24:49.597Z,1999.90
2022-11-15T10:27:19.706Z,1970.50
2022-11-15T10:29:50.361Z,1999.90
2022-11-15T10:32:22.228Z,1999.90
2022-11-15T10:34:51.629Z,1999.90
2022-11-15T10:37:30.472Z,1999.90
2022-11-15T10:40:09.328Z,1999.90
2022-11-15T10:42:37.443Z,1999.90
2022-11-15T10:45:26.436Z,1999.90
2022-11-15T10:47:56.102Z,1999.90
2022-11-15T10:50:31.042Z,1999.90
2022-11-15T10:52:59.574Z,1999.90
2022-11-15T10:55:30.553Z,1999.90
2022-11-15T10:58:04.561Z,1962.63
2022-11-15T11:00:36.167Z,1999.90
2022-11-15T11:03:09.014Z,1999.90
2022-11-15T11:05:42.386Z,1999.90
2022-11-15T11:08:25.185Z,1999.90
2022-11-15T11:11:02.816Z,1645.67
2022-11-15T11:13:34.753Z,1922.57
2022-11-15T11:16:19.453Z,1999.90
2022-11-15T11:18:57.779Z,1877.40
2022-11-15T11:21:40.015Z,1999.90
2022-11-15T11:24:15.869Z,1999.90
2022-11-15T11:26:56.687Z,1918.50
2022-11-15T11:29:39.215Z,1999.90
2022-11-15T11:32:24.787Z,1999.90
2022-11-15T11:35:04.182Z,1999.90
2022-11-15T11:37:39.133Z,1999.90
2022-11-15T11:40:21.633Z,1999.90
2022-11-15T11:43:00.219Z,1999.90
2022-11-15T11:45:47.422Z,1999.90
2022-11-15T11:48:17.081Z,1999.90
2022-11-15T11:50:47.747Z,1999.90
2022-11-15T11:53:25.740Z,1878.43
2022-11-15T11:55:56.473Z,1999.90
2022-11-15T11:58:33.234Z,1999.90
2022-11-15T12:01:13.045Z,1999.90
2022-11-15T12:03:45.299Z,1999.90
2022-11-15T12:06:25.593Z,1999.90
2022-11-15T12:09:00.202Z,1999.90
2022-11-15T12:11:32.763Z,1999.90
2022-11-15T12:14:03.555Z,1999.90
2022-11-15T12:16:33.666Z,1999.90
2022-11-15T12:19:03.432Z,1999.90
2022-11-15T12:21:41.476Z,1999.90
2022-11-15T12:24:16.154Z,1966.60
2022-11-15T12:26:50.783Z,1999.90
2022-11-15T12:29:23.975Z,1949.43
2022-11-15T12:31:56.616Z,1999.90
2022-11-15T12:34:47.076Z,1999.90
2022-11-15T12:37:51.867Z,1999.90
2022-11-15T12:40:27.093Z,1999.90
2022-11-15T12:43:07.126Z,1999.90
2022-11-15T12:45:37.749Z,1999.90
2022-11-15T12:48:57.691Z,1999.90
2022-11-15T12:52:04.460Z,1999.90
2022-11-15T12:55:00.632Z,1999.90
2022-11-15T12:57:43.505Z,1999.90
2022-11-15T13:00:39.524Z,1999.90
2022-11-15T13:03:28.658Z,1999.90
2022-11-15T13:06:10.560Z,1821.93
2022-11-15T13:08:57.532Z,1999.90
2022-11-15T13:11:49.144Z,1999.90
2022-11-15T13:14:47.790Z,1921.33
2022-11-15T13:17:41.220Z,1663.37
2022-11-15T13:20:22.724Z,1999.90
2022-11-15T13:22:57.519Z,1999.90
2022-11-15T13:25:53.015Z,1999.90
2022-11-15T13:28:26.680Z,1999.90
2022-11-15T13:30:58.105Z,1999.90
2022-11-15T13:33:31.672Z,1999.90
2022-11-15T13:36:06.334Z,1999.90
2022-11-15T13:38:36.041Z,1999.90
2022-11-15T13:41:19.758Z,1829.37
2022-11-15T13:43:48.363Z,1549.83
2022-11-15T13:46:19.841Z,1999.90
2022-11-15T13:48:49.129Z,1999.90
2022-11-15T13:51:22.879Z,1999.90
2022-11-15T13:53:54.116Z,1999.90
2022-11-15T13:56:22.987Z,1999.90
2022-11-15T13:58:51.304Z,1824.33
2022-11-15T14:01:22.488Z,1217.77
2022-11-15T14:03:54.781Z,1999.90
2022-11-15T14:06:25.392Z,1999.90
2022-11-15T14:09:03.551Z,1999.90
2022-11-15T14:11:31.732Z,1882.47
2022-11-15T14:14:14.342Z,1887.80
2022-11-15T14:16:45.629Z,1834.57
2022-11-15T14:19:34.723Z,1699.67
2022-11-15T14:22:18.975Z,1999.90
2022-11-15T14:24:48.889Z,1710.53
2022-11-15T14:27:25.626Z,1932.93
2022-11-15T14:29:54.244Z,1999.90
2022-11-15T14:32:26.007Z,1991.07
2022-11-15T14:34:58.030Z,1755.17
2022-11-15T14:37:28.206Z,1898.13
2022-11-15T14:39:57.060Z,1868.67
2022-11-15T14:42:25.803Z,1723.93
2022-11-15T14:44:53.970Z,1261.83
2022-11-15T14:47:23.425Z,1215.43
2022-11-15T14:49:51.527Z,1386.43
2022-11-15T14:52:32.239Z,1564.07
2022-11-15T14:55:02.462Z,1280.97
2022-11-15T14:57:31.065Z,1607.07
2022-11-15T14:59:59.238Z,1521.70
2022-11-15T15:02:29.625Z,1644.50
2022-11-15T15:05:02.011Z,1999.90
2022-11-15T15:07:30.262Z,1999.90
2022-11-15T15:10:24.635Z,1220.70
2022-11-15T15:12:46.571Z,1318.27
2022-11-15T15:15:17.269Z,1293.90
2022-11-15T15:17:46.776Z,1504.47
2022-11-15T15:20:14.958Z,1323.43
2022-11-15T15:22:43.022Z,1277.80
2022-11-15T15:25:23.385Z,1673.73
2022-11-15T15:27:51.707Z,1662.97
2022-11-15T15:30:19.921Z,1510.50
2022-11-15T15:32:49.427Z,1496.07
2022-11-15T15:35:18.638Z,868.77
2022-11-15T15:37:48.090Z,803.83
2022-11-15T15:40:18.858Z,1910.43
2022-11-15T15:42:46.902Z,1282.23
2022-11-15T15:45:15.906Z,1037.70
2022-11-15T15:47:44.497Z,1871.77
2022-11-15T15:50:23.497Z,1875.00
2022-11-15T15:52:51.881Z,1039.43
2022-11-15T15:55:20.169Z,1372.20
2022-11-15T15:57:48.451Z,1705.40
2022-11-15T16:00:17.141Z,1057.27
2022-11-15T16:02:45.471Z,1317.33
2022-11-15T16:05:14.727Z,1046.97
2022-11-15T16:07:45.161Z,1999.90
2022-11-15T16:10:21.505Z,961.50
2022-11-15T16:12:50.338Z,1520.13
2022-11-15T16:15:18.690Z,1027.47
2022-11-15T16:17:50.117Z,1010.33
2022-11-15T16:20:36.638Z,1490.17
2022-11-15T16:23:09.617Z,666.10
2022-11-15T16:25:43.353Z,829.20
2022-11-15T16:28:20.871Z,819.77
2022-11-15T16:30:53.910Z,692.30
2022-11-15T16:33:25.297Z,792.90
2022-11-15T16:35:53.439Z,592.27
2022-11-15T16:38:22.949Z,1070.83
2022-11-15T16:40:50.971Z,481.40
2022-11-15T16:43:19.140Z,866.27
2022-11-15T16:45:47.433Z,917.60
2022-11-15T16:48:25.271Z,1495.17
2022-11-15T16:50:57.569Z,509.10
2022-11-15T16:53:27.976Z,1139.33
2022-11-15T16:55:56.806Z,1612.80
2022-11-15T16:58:25.440Z,1229.20
2022-11-15T17:00:54.318Z,972.07
2022-11-15T17:03:22.697Z,1999.90
2022-11-15T17:05:50.947Z,727.80
2022-11-15T17:08:20.880Z,1177.27
2022-11-15T17:10:50.423Z,1999.90
2022-11-15T17:13:18.510Z,1999.90
2022-11-15T17:15:46.520Z,1999.90
2022-11-15T17:18:15.669Z,797.23
2022-11-15T17:20:44.869Z,1999.90
2022-11-15T17:23:15.433Z,1999.90
2022-11-15T17:25:43.805Z,1992.53
2022-11-15T17:28:13.214Z,1906.47
2022-11-15T17:30:43.223Z,1222.13
2022-11-15T17:33:11.302Z,1999.90
2022-11-15T17:35:39.338Z,1999.90
2022-11-15T17:38:07.389Z,1676.03
2022-11-15T17:40:35.415Z,1999.90
2022-11-15T17:43:03.675Z,1868.77
2022-11-15T17:45:33.025Z,1638.60
2022-11-15T17:48:01.050Z,1999.90
2022-11-15T17:50:29.034Z,1585.03
2022-11-15T17:52:57.358Z,1999.90
2022-11-15T17:55:25.370Z,1999.90
2022-11-15T17:57:53.391Z,1084.90
2022-11-15T18:00:21.816Z,1999.90
2022-11-15T18:02:51.209Z,863.50
2022-11-15T18:05:19.253Z,1721.10
2022-11-15T18:07:47.252Z,643.77
2022-11-15T18:10:15.339Z,931.10
2022-11-15T18:12:43.343Z,730.00
2022-11-15T18:15:11.518Z,715.50
2022-11-15T18:17:39.561Z,1458.17
2022-11-15T18:20:10.142Z,1999.90
2022-11-15T18:22:38.155Z,375.20
2022-11-15T18:25:06.950Z,846.40
2022-11-15T18:27:35.134Z,464.40
2022-11-15T18:30:03.174Z,508.00
2022-11-15T18:32:31.165Z,1334.53
2022-11-15T18:34:59.219Z,754.30
2022-11-15T18:37:28.612Z,772.93
2022-11-15T18:39:56.715Z,938.50
2022-11-15T18:42:24.761Z,1013.90
2022-11-15T18:44:52.966Z,1047.77
2022-11-15T18:47:20.983Z,424.67
2022-11-15T18:49:49.024Z,975.27
2022-11-15T18:52:17.053Z,750.47
2022-11-15T18:54:46.438Z,1081.67
2022-11-15T18:57:14.445Z,679.60
2022-11-15T18:59:42.467Z,714.13
2022-11-15T19:02:13.213Z,703.77
2022-11-15T19:04:41.310Z,962.93
2022-11-15T19:07:09.362Z,1024.07
2022-11-15T19:09:38.739Z,817.87
2022-11-15T19:12:08.510Z,721.67
2022-11-15T19:14:36.524Z,817.90
2022-11-15T19:17:04.640Z,756.90
2022-11-15T19:19:32.990Z,806.37
2022-11-15T19:22:02.343Z,529.83
2022-11-15T19:24:30.528Z,346.53
2022-11-15T19:26:58.542Z,969.47
2022-11-15T19:29:27.914Z,477.20
2022-11-15T19:31:55.929Z,314.07
2022-11-15T19:34:23.912Z,786.87
2022-11-15T19:36:51.952Z,440.03
2022-11-15T19:39:19.967Z,959.90
2022-11-15T19:41:48.286Z,883.10
2022-11-15T19:44:16.563Z,456.30
2022-11-15T19:46:45.961Z,642.97
2022-11-15T19:49:14.268Z,371.40
2022-11-15T19:51:45.124Z,533.97
2022-11-15T19:54:13.651Z,330.57
2022-11-15T19:56:41.703Z,518.93
2022-11-15T19:59:11.597Z,270.13
2022-11-15T20:01:39.967Z,1267.73
2022-11-15T20:04:10.204Z,494.80
2022-11-15T20:06:40.400Z,555.13
2022-11-15T20:09:09.001Z,552.03
2022-11-15T20:11:38.161Z,389.30
2022-11-15T20:14:08.932Z,642.40
2022-11-15T20:16:37.500Z,88.57
2022-11-15T20:19:05.981Z,1174.63
2022-11-15T20:21:35.740Z,296.87
2022-11-15T20:24:03.746Z,518.73
2022-11-15T20:26:32.314Z,506.70
2022-11-15T20:29:03.181Z,819.07
2022-11-15T20:31:31.939Z,1034.80
2022-11-15T20:33:59.957Z,704.17
2022-11-15T20:36:28.311Z,606.33
2022-11-15T20:39:00.224Z,382.73
2022-11-15T20:41:28.994Z,889.70
2022-11-15T20:43:57.053Z,867.60
2022-11-15T20:46:25.317Z,778.53
2022-11-15T20:48:53.429Z,919.07
2022-11-15T20:51:21.766Z,1186.97
2022-11-15T20:53:50.410Z,865.70
2022-11-15T20:56:21.841Z,261.53
2022-11-15T20:58:51.223Z,235.40
2022-11-15T21:01:24.376Z,966.93
2022-11-15T21:03:53.246Z,554.90
2022-11-15T21:06:21.783Z,693.50
2022-11-15T21:09:07.884Z,1260.87
2022-11-15T21:11:54.960Z,492.80
2022-11-15T21:14:22.982Z,1626.20
2022-11-15T21:16:51.151Z,967.20
2022-11-15T21:19:23.873Z,740.57
2022-11-15T21:21:55.286Z,541.00
2022-11-15T21:24:24.638Z,479.90
2022-11-15T21:26:54.928Z,815.23
2022-11-15T21:29:22.964Z,346.43
2022-11-15T21:31:52.889Z,874.83
2022-11-15T21:34:21.612Z,949.03
2022-11-15T21:36:49.710Z,1653.57
2022-11-15T21:39:17.730Z,1668.30
2022-11-15T21:41:45.852Z,1467.53
2022-11-15T21:44:15.212Z,1008.30
2022-11-15T21:46:43.605Z,956.10
2022-11-15T21:49:11.875Z,1141.50
2022-11-15T21:51:39.977Z,710.17
2022-11-15T21:54:08.303Z,1153.33
2022-11-15T21:56:36.846Z,1999.90
2022-11-15T21:59:04.914Z,470.43
2022-11-15T22:01:51.882Z,1999.90
2022-11-15T22:04:21.470Z,889.23
2022-11-15T22:06:49.495Z,1154.90
2022-11-15T22:09:17.582Z,955.83
2022-11-15T22:11:45.634Z,447.23
2022-11-15T22:14:13.731Z,1111.97
2022-11-15T22:16:43.067Z,1050.17
2022-11-15T22:19:11.157Z,986.30
2022-11-15T22:21:40.069Z,896.93
2022-11-15T22:24:08.682Z,979.60
2022-11-15T22:26:36.857Z,1413.07
2022-11-15T22:29:04.972Z,604.37
2022-11-15T22:31:33.033Z,1120.20
2022-11-15T22:34:02.474Z,648.33
2022-11-15T22:36:46.829Z,1237.87
2022-11-15T22:39:18.855Z,849.73
2022-11-15T22:41:46.924Z,1327.03
2022-11-15T22:44:15.006Z,1363.53
2022-11-15T22:46:43.043Z,572.97
2022-11-15T22:49:12.586Z,726.80
2022-11-15T22:51:40.723Z,1123.00
2022-11-15T22:54:08.973Z,1554.33
2022-11-15T22:56:37.035Z,1013.00
2022-11-15T22:59:05.112Z,1999.90
2022-11-15T23:01:33.171Z,1551.00
2022-11-15T23:04:01.306Z,1774.20
2022-11-15T23:06:30.929Z,747.80
2022-11-15T23:08:59.091Z,814.50
2022-11-15T23:11:44.444Z,893.87
2022-11-15T23:14:12.761Z,1319.83
2022-11-15T23:16:40.854Z,819.93
2022-11-15T23:19:11.784Z,811.97
2022-11-15T23:22:00.006Z,1615.70
2022-11-15T23:24:28.617Z,710.03
2022-11-15T23:26:58.795Z,203.50
2022-11-15T23:29:28.799Z,1498.90
2022-11-15T23:32:15.266Z,1266.43
2022-11-15T23:34:45.540Z,781.50
2022-11-15T23:37:16.490Z,703.20
2022-11-15T23:39:44.560Z,220.87
2022-11-15T23:42:19.717Z,428.87
2022-11-15T23:44:50.084Z,993.57
2022-11-15T23:47:18.203Z,820.93
2022-11-15T23:49:46.281Z,1050.60
2022-11-15T23:52:16.528Z,844.57
2022-11-15T23:54:44.708Z,821.70
2022-11-15T23:57:12.826Z,1142.50
2022-11-15T23:59:43.429Z,1416.27
